メインページ
METAR-TAF:

METAR-TAF

空港 :

Grant County Airport

シルヴァーシティ, ニューメキシコ州, アメリカ合衆国

緯度: 32-38N, 経度: 108-09W, 海抜: 1659m

現時点の気象観測

当レポートは18分前の05:55(UTC)に作成
の風 8kt
気温 0°C
湿度 47%
気圧 1023 hPa
視程: 16.1km
晴天

METAR: KSVC 160555Z AUTO 36008KT 10SM CLR 00/M10 A3021 RMK AO2 T10051105 10108 21011

時間: 23:13 (06:13 UTC)


TAF: 見つかりません

4,000以上の空港の気象観測と天気予報(METAR報とTAF報)

利用可能な観測所は地図上に黄色い丸と赤い丸で示す。

丸の上にカーソルを重ねると観測所名を参照できる。

次にクリックすると気象観測と天気予報を参照できる。

マップの切り替え:黒色「×」印の緑ボタンをクリックして拡大、「-」印の緑ボタンをクリックして縮小、緑色の三角印をクリックして隣りの地図に切り替え


METAR-TAF: